Time,TemperatureF,DewpointF,PressureIn,WindDirection,WindDirectionDegrees,WindSpeedMPH,WindSpeedGustMPH,Humidity,HourlyPrecipIn,Conditions,Clouds,dailyrainin,SoftwareType,DateUTC
2013-03-16 00:02:00,49.0,43.0,30.14,NE,40,0.0,2.0,79,-99.99,,,-99.99,,2013-03-16 07:02:00,
2013-03-16 00:12:00,48.0,43.0,30.14,ESE,117,4.0,6.0,81,-99.99,,,-99.99,,2013-03-16 07:12:00,
2013-03-16 00:22:00,48.0,43.0,30.14,ESE,107,1.0,4.0,83,-99.99,,,-99.99,,2013-03-16 07:22:00,
2013-03-16 00:32:00,48.0,44.0,30.13,SE,127,3.0,4.0,86,-99.99,,,-99.99,,2013-03-16 07:32:00,
2013-03-16 00:42:00,48.0,44.0,30.13,ESE,114,2.0,4.0,85,-99.99,,,-99.99,,2013-03-16 07:42:00,
2013-03-16 00:52:00,48.0,44.0,30.14,NE,48,1.0,3.0,87,-99.99,,,-99.99,,2013-03-16 07:52:00,
2013-03-16 01:02:00,47.0,44.0,30.13,SSE,160,2.0,2.0,88,-99.99,,,-99.99,,2013-03-16 08:02:00,
2013-03-16 01:12:00,47.0,43.0,30.13,SE,142,3.0,7.0,87,-99.99,,,-99.99,,2013-03-16 08:12:00,
2013-03-16 01:22:00,47.0,44.0,30.13,ESE,104,2.0,4.0,89,-99.99,,,-99.99,,2013-03-16 08:22:00,
2013-03-16 01:32:00,47.0,44.0,30.13,ESE,104,2.0,4.0,89,-99.99,,,-99.99,,2013-03-16 08:32:00,
2013-03-16 01:42:00,47.0,44.0,30.13,ESE,113,2.0,4.0,90,-99.99,,,-99.99,,2013-03-16 08:42:00,
2013-03-16 01:52:00,47.0,45.0,30.13,NNE,24,1.0,2.0,92,-99.99,,,-99.99,,2013-03-16 08:52:00,
2013-03-16 02:01:00,47.0,46.0,30.13,East,94,1.0,3.0,94,-99.99,,,-99.99,,2013-03-16 09:01:00,
2013-03-16 02:12:00,47.0,46.0,30.13,ESE,105,1.0,3.0,96,-99.99,,,-99.99,,2013-03-16 09:12:00,
2013-03-16 02:22:00,47.0,47.0,30.13,East,98,1.0,4.0,99,-99.99,,,-99.99,,2013-03-16 09:22:00,
2013-03-16 02:32:00,48.0,48.0,30.13,SW,225,1.0,6.0,100,-99.99,,,-99.99,,2013-03-16 09:32:00,
2013-03-16 02:42:00,49.0,49.0,30.13,SE,127,0.0,3.0,99,-99.99,,,-99.99,,2013-03-16 09:42:00,
2013-03-16 02:52:00,50.0,50.0,30.13,WNW,285,6.0,11.0,100,-99.99,,,-99.99,,2013-03-16 09:52:00,
2013-03-16 03:03:00,50.0,49.0,30.13,WNW,293,7.0,13.0,98,-99.99,,,-99.99,,2013-03-16 10:03:00,
2013-03-16 03:12:00,50.0,50.0,30.13,WNW,288,7.0,10.0,99,-99.99,,,-99.99,,2013-03-16 10:12:00,
2013-03-16 03:22:00,50.0,50.0,30.13,West,279,5.0,10.0,99,-99.99,,,-99.99,,2013-03-16 10:22:00,
2013-03-16 03:32:00,50.0,49.0,30.13,WSW,244,3.0,8.0,99,-99.99,,,-99.99,,2013-03-16 10:32:00,
2013-03-16 03:42:00,50.0,49.0,30.12,West,267,5.0,8.0,99,-99.99,,,-99.99,,2013-03-16 10:42:00,
2013-03-16 03:52:00,50.0,49.0,30.12,WSW,247,4.0,8.0,98,-99.99,,,-99.99,,2013-03-16 10:52:00,
2013-03-16 04:03:00,50.0,49.0,30.12,West,265,7.0,11.0,96,-99.99,,,-99.99,,2013-03-16 11:03:00,
2013-03-16 04:12:00,50.0,49.0,30.12,West,272,7.0,15.0,95,-99.99,,,-99.99,,2013-03-16 11:12:00,
2013-03-16 04:22:00,50.0,48.0,30.12,WSW,254,7.0,12.0,94,-99.99,,,-99.99,,2013-03-16 11:22:00,
2013-03-16 04:32:00,50.0,48.0,30.12,WSW,254,7.0,12.0,94,-99.99,,,-99.99,,2013-03-16 11:32:00,
2013-03-16 04:42:00,49.0,48.0,30.12,WNW,289,11.0,21.0,97,-99.99,,,-99.99,,2013-03-16 11:42:00,
2013-03-16 04:52:00,49.0,48.0,30.11,WNW,285,9.0,16.0,96,-99.99,,,-99.99,,2013-03-16 11:52:00,
2013-03-16 05:02:00,49.0,48.0,30.11,West,278,10.0,17.0,95,-99.99,,,-99.99,,2013-03-16 12:02:00,
2013-03-16 05:12:00,49.0,48.0,30.10,WNW,286,11.0,18.0,95,-99.99,,,-99.99,,2013-03-16 12:12:00,
2013-03-16 05:22:00,49.0,48.0,30.10,WNW,288,13.0,22.0,95,-99.99,,,-99.99,,2013-03-16 12:22:00,
2013-03-16 05:32:00,49.0,48.0,30.10,WNW,293,13.0,23.0,95,-99.99,,,-99.99,,2013-03-16 12:32:00,
2013-03-16 05:42:00,49.0,47.0,30.10,WNW,289,12.0,22.0,94,-99.99,,,-99.99,,2013-03-16 12:42:00,
2013-03-16 05:52:00,49.0,47.0,30.10,WNW,282,11.0,18.0,94,-99.99,,,-99.99,,2013-03-16 12:52:00,
2013-03-16 06:02:00,49.0,47.0,30.10,West,277,10.0,18.0,94,-99.99,,,-99.99,,2013-03-16 13:02:00,
2013-03-16 06:12:00,48.0,47.0,30.10,WNW,290,12.0,23.0,94,-99.99,,,-99.99,,2013-03-16 13:12:00,
2013-03-16 06:22:00,48.0,47.0,30.10,West,279,10.0,22.0,94,-99.99,,,-99.99,,2013-03-16 13:22:00,
2013-03-16 06:32:00,48.0,47.0,30.09,West,272,10.0,18.0,95,-99.99,,,-99.99,,2013-03-16 13:32:00,
2013-03-16 06:42:00,48.0,46.0,30.09,West,277,11.0,21.0,93,-99.99,,,-99.99,,2013-03-16 13:42:00,
2013-03-16 06:52:00,48.0,46.0,30.09,West,280,14.0,22.0,94,-99.99,,,-99.99,,2013-03-16 13:52:00,
2013-03-16 07:02:00,48.0,47.0,30.09,WNW,286,12.0,23.0,94,-99.99,,,-99.99,,2013-03-16 14:02:00,
2013-03-16 07:12:00,48.0,47.0,30.09,WNW,282,11.0,19.0,94,-99.99,,,-99.99,,2013-03-16 14:12:00,
2013-03-16 07:22:00,48.0,46.0,30.09,West,281,11.0,18.0,94,-99.99,,,-99.99,,2013-03-16 14:22:00,
2013-03-16 07:32:00,48.0,46.0,30.08,West,278,11.0,19.0,94,-99.99,,,-99.99,,2013-03-16 14:32:00,
2013-03-16 07:42:00,48.0,46.0,30.09,West,267,9.0,17.0,95,-99.99,,,-99.99,,2013-03-16 14:42:00,
2013-03-16 07:52:00,48.0,47.0,30.09,WSW,255,6.0,14.0,95,-99.99,,,-99.99,,2013-03-16 14:52:00,
2013-03-16 08:02:00,48.0,46.0,30.09,WSW,249,8.0,16.0,92,-99.99,,,-99.99,,2013-03-16 15:02:00,
2013-03-16 08:12:00,48.0,46.0,30.08,West,277,11.0,19.0,92,-99.99,,,-99.99,,2013-03-16 15:12:00,
2013-03-16 08:22:00,47.0,46.0,30.08,WNW,282,10.0,17.0,94,-99.99,,,-99.99,,2013-03-16 15:22:00,
2013-03-16 08:33:00,48.0,46.0,30.08,WSW,247,6.0,12.0,94,-99.99,,,-99.99,,2013-03-16 15:33:00,
2013-03-16 08:42:00,48.0,46.0,30.07,West,274,7.0,12.0,93,-99.99,,,-99.99,,2013-03-16 15:42:00,
2013-03-16 08:52:00,48.0,47.0,30.07,West,280,9.0,18.0,94,-99.99,,,-99.99,,2013-03-16 15:52:00,
2013-03-16 09:02:00,49.0,46.0,30.07,West,267,8.0,13.0,91,-99.99,,,-99.99,,2013-03-16 16:02:00,
2013-03-16 09:12:00,49.0,46.0,30.07,West,281,8.0,14.0,91,-99.99,,,-99.99,,2013-03-16 16:12:00,
2013-03-16 09:22:00,48.0,46.0,30.07,WNW,285,10.0,17.0,92,-99.99,,,-99.99,,2013-03-16 16:22:00,
2013-03-16 09:33:00,48.0,47.0,30.07,WNW,287,12.0,20.0,93,-99.99,,,-99.99,,2013-03-16 16:33:00,
2013-03-16 09:42:00,48.0,47.0,30.07,WNW,290,12.0,18.0,94,-99.99,,,-99.99,,2013-03-16 16:42:00,
2013-03-16 09:52:00,48.0,47.0,30.07,West,273,8.0,13.0,94,-99.99,,,-99.99,,2013-03-16 16:52:00,
2013-03-16 10:02:00,48.0,47.0,30.08,West,280,10.0,16.0,95,-99.99,,,-99.99,,2013-03-16 17:02:00,
2013-03-16 10:12:00,48.0,47.0,30.08,WNW,283,10.0,15.0,95,-99.99,,,-99.99,,2013-03-16 17:12:00,
2013-03-16 10:22:00,49.0,48.0,30.08,West,278,8.0,14.0,96,-99.99,,,-99.99,,2013-03-16 17:22:00,
2013-03-16 10:32:00,49.0,48.0,30.08,West,278,8.0,14.0,96,-99.99,,,-99.99,,2013-03-16 17:32:00,
2013-03-16 10:42:00,49.0,47.0,30.08,WNW,284,9.0,16.0,94,-99.99,,,-99.99,,2013-03-16 17:42:00,
2013-03-16 10:52:00,49.0,47.0,30.07,WNW,286,10.0,17.0,94,-99.99,,,-99.99,,2013-03-16 17:52:00,
2013-03-16 11:02:00,49.0,47.0,30.07,West,275,10.0,16.0,93,-99.99,,,-99.99,,2013-03-16 18:02:00,
2013-03-16 11:13:00,49.0,48.0,30.07,WNW,283,7.0,13.0,94,-99.99,,,-99.99,,2013-03-16 18:13:00,
2013-03-16 11:22:00,50.0,48.0,30.07,WNW,285,9.0,17.0,92,-99.99,,,-99.99,,2013-03-16 18:22:00,
2013-03-16 11:32:00,50.0,48.0,30.06,WNW,293,12.0,21.0,93,-99.99,,,-99.99,,2013-03-16 18:32:00,
2013-03-16 11:42:00,49.0,47.0,30.06,WNW,283,13.0,22.0,91,-99.99,,,-99.99,,2013-03-16 18:42:00,
2013-03-16 11:52:00,50.0,47.0,30.06,WNW,284,13.0,23.0,90,-99.99,,,-99.99,,2013-03-16 18:52:00,
2013-03-16 12:02:00,50.0,47.0,30.06,WNW,283,14.0,23.0,89,-99.99,,,-99.99,,2013-03-16 19:02:00,
2013-03-16 12:12:00,49.0,45.0,30.05,WNW,288,14.0,25.0,85,-99.99,,,-99.99,,2013-03-16 19:12:00,
2013-03-16 12:22:00,49.0,44.0,30.06,West,272,15.0,26.0,81,-99.99,,,-99.99,,2013-03-16 19:22:00,
2013-03-16 12:32:00,48.0,47.0,30.06,West,280,11.0,23.0,96,-99.99,,,-99.99,,2013-03-16 19:32:00,
2013-03-16 12:42:00,48.0,47.0,30.06,WNW,286,12.0,20.0,95,-99.99,,,-99.99,,2013-03-16 19:42:00,
2013-03-16 12:52:00,49.0,47.0,30.05,WNW,287,13.0,23.0,94,-99.99,,,-99.99,,2013-03-16 19:52:00,
2013-03-16 13:02:00,49.0,47.0,30.05,WNW,283,14.0,29.0,92,-99.99,,,-99.99,,2013-03-16 20:02:00,
2013-03-16 13:12:00,49.0,47.0,30.04,West,281,13.0,20.0,91,-99.99,,,-99.99,,2013-03-16 20:12:00,
2013-03-16 13:21:00,49.0,47.0,30.04,WNW,289,12.0,19.0,91,-99.99,,,-99.99,,2013-03-16 20:21:00,
2013-03-16 13:32:00,50.0,47.0,30.03,West,271,11.0,17.0,90,-99.99,,,-99.99,,2013-03-16 20:32:00,
2013-03-16 13:42:00,50.0,48.0,30.03,West,274,9.0,15.0,91,-99.99,,,-99.99,,2013-03-16 20:42:00,
2013-03-16 13:52:00,50.0,46.0,30.02,WNW,289,13.0,23.0,86,-99.99,,,-99.99,,2013-03-16 20:52:00,
2013-03-16 14:02:00,50.0,46.0,30.02,West,276,10.0,20.0,86,-99.99,,,-99.99,,2013-03-16 21:02:00,
2013-03-16 14:12:00,50.0,47.0,30.01,West,275,9.0,14.0,90,-99.99,,,-99.99,,2013-03-16 21:12:00,
2013-03-16 14:22:00,50.0,47.0,30.01,WNW,285,9.0,19.0,90,-99.99,,,-99.99,,2013-03-16 21:22:00,
2013-03-16 14:32:00,49.0,46.0,30.00,WNW,282,11.0,21.0,90,-99.99,,,-99.99,,2013-03-16 21:32:00,
2013-03-16 14:43:00,49.0,46.0,30.00,WNW,283,14.0,22.0,89,-99.99,,,-99.99,,2013-03-16 21:43:00,
2013-03-16 14:52:00,49.0,45.0,30.00,West,280,12.0,19.0,88,-99.99,,,-99.99,,2013-03-16 21:52:00,
2013-03-16 15:03:00,49.0,46.0,29.99,West,273,9.0,14.0,87,-99.99,,,-99.99,,2013-03-16 22:03:00,
2013-03-16 15:12:00,50.0,44.0,29.99,West,268,7.0,11.0,81,-99.99,,,-99.99,,2013-03-16 22:12:00,
2013-03-16 15:22:00,49.0,43.0,29.98,West,270,9.0,16.0,78,-99.99,,,-99.99,,2013-03-16 22:22:00,
2013-03-16 15:32:00,49.0,44.0,29.98,West,275,10.0,18.0,83,-99.99,,,-99.99,,2013-03-16 22:32:00,
2013-03-16 15:42:00,49.0,45.0,29.98,WNW,282,11.0,19.0,88,-99.99,,,-99.99,,2013-03-16 22:42:00,
2013-03-16 15:52:00,48.0,45.0,29.97,WNW,283,14.0,24.0,90,-99.99,,,-99.99,,2013-03-16 22:52:00,
2013-03-16 16:02:00,48.0,45.0,29.97,WNW,283,13.0,25.0,90,-99.99,,,-99.99,,2013-03-16 23:02:00,
2013-03-16 16:12:00,47.0,45.0,29.97,WNW,282,12.0,18.0,91,-99.99,,,-99.99,,2013-03-16 23:12:00,
2013-03-16 16:22:00,48.0,43.0,29.96,West,277,13.0,23.0,85,-99.99,,,-99.99,,2013-03-16 23:22:00,
2013-03-16 16:32:00,48.0,43.0,29.96,West,275,11.0,18.0,85,-99.99,,,-99.99,,2013-03-16 23:32:00,
2013-03-16 16:42:00,47.0,42.0,29.96,West,277,12.0,23.0,81,-99.99,,,-99.99,,2013-03-16 23:42:00,
2013-03-16 16:52:00,48.0,42.0,29.95,West,271,12.0,20.0,80,-99.99,,,-99.99,,2013-03-16 23:52:00,
2013-03-16 17:01:00,47.0,41.0,29.95,West,279,10.0,18.0,79,-99.99,,,-99.99,,2013-03-17 00:01:00,
2013-03-16 17:12:00,47.0,42.0,29.95,West,281,11.0,17.0,81,-99.99,,,-99.99,,2013-03-17 00:12:00,
2013-03-16 17:22:00,47.0,41.0,29.94,West,280,10.0,17.0,80,-99.99,,,-99.99,,2013-03-17 00:22:00,
2013-03-16 17:32:00,47.0,42.0,29.94,West,267,9.0,20.0,81,-99.99,,,-99.99,,2013-03-17 00:32:00,
2013-03-16 17:42:00,47.0,42.0,29.94,West,267,9.0,20.0,81,-99.99,,,-99.99,,2013-03-17 00:42:00,
2013-03-16 17:52:00,46.0,41.0,29.94,West,269,10.0,20.0,83,-99.99,,,-99.99,,2013-03-17 00:52:00,
2013-03-16 18:02:00,45.0,43.0,29.94,WNW,282,15.0,24.0,92,-99.99,,,-99.99,,2013-03-17 01:02:00,
2013-03-16 18:12:00,45.0,43.0,29.94,West,278,15.0,26.0,93,-99.99,,,-99.99,,2013-03-17 01:12:00,
2013-03-16 18:22:00,44.0,43.0,29.94,West,274,14.0,23.0,95,-99.99,,,-99.99,,2013-03-17 01:22:00,
2013-03-16 18:32:00,44.0,43.0,29.94,West,269,12.0,22.0,96,-99.99,,,-99.99,,2013-03-17 01:32:00,
2013-03-16 18:42:00,44.0,40.0,29.95,West,260,13.0,23.0,85,-99.99,,,-99.99,,2013-03-17 01:42:00,
2013-03-16 18:52:00,43.0,39.0,29.95,WSW,255,8.0,18.0,85,-99.99,,,-99.99,,2013-03-17 01:52:00,
2013-03-16 19:02:00,43.0,37.0,29.96,West,265,8.0,15.0,82,-99.99,,,-99.99,,2013-03-17 02:02:00,
2013-03-16 19:12:00,42.0,38.0,29.97,West,265,8.0,15.0,85,-99.99,,,-99.99,,2013-03-17 02:12:00,
2013-03-16 19:22:00,41.0,38.0,29.98,WSW,255,8.0,17.0,88,-99.99,,,-99.99,,2013-03-17 02:22:00,
2013-03-16 19:33:00,41.0,39.0,29.99,WSW,243,8.0,16.0,96,-99.99,,,-99.99,,2013-03-17 02:33:00,
2013-03-16 19:42:00,40.0,40.0,30.00,WSW,254,4.0,8.0,99,-99.99,,,-99.99,,2013-03-17 02:42:00,
2013-03-16 19:52:00,40.0,39.0,30.00,WSW,249,7.0,14.0,98,-99.99,,,-99.99,,2013-03-17 02:52:00,
2013-03-16 20:02:00,40.0,39.0,29.99,SSW,196,3.0,5.0,97,-99.99,,,-99.99,,2013-03-17 03:02:00,
2013-03-16 20:12:00,40.0,40.0,29.99,SSE,151,3.0,7.0,99,-99.99,,,-99.99,,2013-03-17 03:12:00,
2013-03-16 20:22:00,40.0,39.0,29.99,SSW,213,1.0,3.0,98,-99.99,,,-99.99,,2013-03-17 03:22:00,
2013-03-16 20:33:00,40.0,39.0,29.99,WSW,240,3.0,4.0,97,-99.99,,,-99.99,,2013-03-17 03:33:00,
2013-03-16 20:42:00,40.0,39.0,30.00,SW,214,2.0,4.0,98,-99.99,,,-99.99,,2013-03-17 03:42:00,
2013-03-16 20:52:00,39.0,39.0,30.01,SW,232,5.0,8.0,98,-99.99,,,-99.99,,2013-03-17 03:52:00,
2013-03-16 21:02:00,39.0,39.0,30.01,WSW,239,5.0,10.0,100,-99.99,,,-99.99,,2013-03-17 04:02:00,
2013-03-16 21:12:00,39.0,39.0,30.01,WSW,241,10.0,18.0,100,-99.99,,,-99.99,,2013-03-17 04:12:00,
2013-03-16 21:23:00,39.0,39.0,30.00,SW,222,5.0,9.0,100,-99.99,,,-99.99,,2013-03-17 04:23:00,
2013-03-16 21:32:00,39.0,39.0,30.00,SW,227,4.0,6.0,100,-99.99,,,-99.99,,2013-03-17 04:32:00,
2013-03-16 21:42:00,39.0,39.0,30.01,West,266,8.0,15.0,97,-99.99,,,-99.99,,2013-03-17 04:42:00,
2013-03-16 21:53:00,40.0,39.0,30.01,West,267,6.0,14.0,98,-99.99,,,-99.99,,2013-03-17 04:53:00,
2013-03-16 22:02:00,40.0,39.0,30.01,WSW,254,10.0,20.0,96,-99.99,,,-99.99,,2013-03-17 05:02:00,
2013-03-16 22:12:00,39.0,39.0,30.01,WSW,245,4.0,7.0,99,-99.99,,,-99.99,,2013-03-17 05:12:00,
2013-03-16 22:22:00,39.0,39.0,30.01,SW,221,4.0,6.0,100,-99.99,,,-99.99,,2013-03-17 05:22:00,
2013-03-16 22:32:00,38.0,38.0,30.01,WSW,258,4.0,7.0,100,-99.99,,,-99.99,,2013-03-17 05:32:00,
2013-03-16 22:42:00,38.0,38.0,30.01,SSW,201,3.0,6.0,100,-99.99,,,-99.99,,2013-03-17 05:42:00,
2013-03-16 22:52:00,38.0,38.0,30.00,SW,222,3.0,4.0,100,-99.99,,,-99.99,,2013-03-17 05:52:00,
2013-03-16 23:02:00,38.0,38.0,30.01,West,262,4.0,6.0,100,-99.99,,,-99.99,,2013-03-17 06:02:00,
2013-03-16 23:12:00,39.0,39.0,30.01,West,267,2.0,9.0,100,-99.99,,,-99.99,,2013-03-17 06:12:00,
2013-03-16 23:22:00,39.0,38.0,30.02,WNW,294,8.0,25.0,96,-99.99,,,-99.99,,2013-03-17 06:22:00,
2013-03-16 23:32:00,37.0,37.0,30.03,WNW,290,14.0,29.0,100,-99.99,,,-99.99,,2013-03-17 06:32:00,
2013-03-16 23:42:00,36.0,36.0,30.03,West,280,21.0,37.0,100,-99.99,,,-99.99,,2013-03-17 06:42:00,
2013-03-16 23:52:00,36.0,36.0,30.04,West,278,14.0,24.0,100,-99.99,,,-99.99,,2013-03-17 06:52:00,